This is the latest recevied weather packets stored in our database for station/object G4MDP-13. If no packets are shown the sender has not sent any weather packets the latest 10 day(s).
| Time | Temp. | Humidity | Pressure | Rain* | Wind** | Luminosity | Snow |
|---|---|---|---|---|---|---|---|
| 1777918731 | 14.44° C | 82% | 1007.5 hPa | 0 mm | - | - | - |
| 1777917890 | 14.44° C | 82% | 1007.5 hPa | 0 mm | - | - | - |
| 1777917831 | 14.44° C | 82% | 1007.5 hPa | 0 mm | - | - | - |
| 1777916931 | 14.44° C | 81% | 1007.4 hPa | 0 mm | - | - | - |
| 1777916090 | 15° C | 79% | 1007.5 hPa | 0 mm | - | - | - |
| 1777916031 | 15° C | 79% | 1007.3 hPa | 0 mm | - | - | - |
| 1777915131 | 15.56° C | 76% | 1007.3 hPa | 0 mm | - | - | - |
| 1777914290 | 15.56° C | 76% | 1007.3 hPa | 0 mm | - | - | - |
| 1777914233 | 15.56° C | 76% | 1007.3 hPa | 0 mm | - | - | - |
| 1777914231 | 15.56° C | 76% | 1007.3 hPa | 0 mm | - | - | - |
| 1777913331 | 16.11° C | 75% | 1013.4 hPa | 0 mm | - | - | - |
| 1777913330 | 16.11° C | 75% | 1013.4 hPa | 0 mm | - | - | - |
| 1777912490 | 16.67° C | 72% | 1007.1 hPa | 0 mm | - | - | - |
| 1777912431 | 16.67° C | 72% | 1013.5 hPa | 0 mm | - | - | - |
| 1777911531 | 17.78° C | 70% | 1007.4 hPa | 0 mm | - | - | - |
| 1777911530 | 17.78° C | 70% | 1007.4 hPa | 0 mm | - | - | - |
| 1777910690 | 17.78° C | 68% | 1007.1 hPa | 0 mm | - | - | - |
| 1777910631 | 17.78° C | 68% | 1007.1 hPa | 0 mm | - | - | - |
| 1777909731 | 18.89° C | 65% | 1013.2 hPa | 0 mm | - | - | - |
| 1777909730 | 18.89° C | 65% | 1013.2 hPa | 0 mm | - | - | - |
| 1777908890 | 19.44° C | 63% | 1007.2 hPa | 0 mm | - | - | - |
| 1777908847 | 18.89° C | 64% | 1007.2 hPa | 0 mm | - | - | - |
| 1777907931 | 18.33° C | 67% | 1007.4 hPa | 0 mm | - | - | - |
| 1777907090 | 18.33° C | 65% | 1007.5 hPa | 0 mm | - | - | - |
| 1777907031 | 18.33° C | 65% | 1007.5 hPa | 0 mm | - | - | - |
* Rain latest hour (hover to see other rain measurements)
** Current wind speed in m/s (hover to see current wind gust speed)